ATN1145 KSHV-KORD
Flight info
| Callsign | ATN1145 |
|---|---|
| Flight time | N/A |
| Altitude | 36000 |
| Route | DCT EIC DCT LIT DCT FTZ TRTLL6 |
| Aircraft | B38M/M-V/N |
Departure
| Time | 2026-04-10 23:37 |
|---|---|
| Airport | Shreveport Regional Airport (KSHV) |
Arrival
| Time | N/A |
|---|---|
| Airport | Chicago O'Hare International Airport (KORD) |
| Time | Latitude | Longitude | Altitude | Speed | Heading |
|---|---|---|---|---|---|
| 2026-04-10 23:06 | 32.45075 | -93.83806 | 263 ft | 0 kts | 326° |
| 2026-04-10 23:28 | 32.45069 | -93.83801 | 263 ft | 1 kts | 340° |
| 2026-04-10 23:28 | 32.45061 | -93.83798 | 263 ft | 1 kts | 6° |
| 2026-04-10 23:28 | 32.45055 | -93.83799 | 264 ft | 1 kts | 24° |
| 2026-04-10 23:29 | 32.45053 | -93.83799 | 264 ft | 0 kts | 29° |
| 2026-04-10 23:29 | 32.45056 | -93.83796 | 263 ft | 1 kts | 37° |
| 2026-04-10 23:29 | 32.45061 | -93.83789 | 263 ft | 1 kts | 49° |
| 2026-04-10 23:30 | 32.45069 | -93.83778 | 263 ft | 2 kts | 53° |
| 2026-04-10 23:30 | 32.45078 | -93.83764 | 263 ft | 2 kts | 49° |
| 2026-04-10 23:30 | 32.45089 | -93.83752 | 263 ft | 2 kts | 40° |
| 2026-04-10 23:30 | 32.45101 | -93.83743 | 263 ft | 2 kts | 27° |
| 2026-04-10 23:31 | 32.45115 | -93.83739 | 262 ft | 2 kts | 10° |
| 2026-04-10 23:31 | 32.45126 | -93.83739 | 262 ft | 1 kts | 355° |
| 2026-04-10 23:31 | 32.45133 | -93.83742 | 262 ft | 1 kts | 343° |
| 2026-04-10 23:31 | 32.45143 | -93.83748 | 263 ft | 2 kts | 334° |
| 2026-04-10 23:32 | 32.45160 | -93.83755 | 263 ft | 3 kts | 342° |
| 2026-04-10 23:32 | 32.45177 | -93.83758 | 263 ft | 2 kts | 357° |
| 2026-04-10 23:32 | 32.45193 | -93.83754 | 264 ft | 2 kts | 20° |
| 2026-04-10 23:32 | 32.45208 | -93.83741 | 264 ft | 5 kts | 41° |
| 2026-04-10 23:33 | 32.45239 | -93.83697 | 265 ft | 9 kts | 50° |
| 2026-04-10 23:33 | 32.45281 | -93.83630 | 266 ft | 9 kts | 53° |
| 2026-04-10 23:33 | 32.45310 | -93.83585 | 266 ft | 4 kts | 53° |
| 2026-04-10 23:33 | 32.45319 | -93.83571 | 266 ft | 0 kts | 52° |
| 2026-04-10 23:36 | 32.45320 | -93.83570 | 266 ft | 0 kts | 52° |
| 2026-04-10 23:36 | 32.45322 | -93.83566 | 266 ft | 2 kts | 52° |
| 2026-04-10 23:36 | 32.45343 | -93.83533 | 266 ft | 7 kts | 54° |
| 2026-04-10 23:36 | 32.45361 | -93.83475 | 267 ft | 6 kts | 103° |
| 2026-04-10 23:37 | 32.45345 | -93.83453 | 267 ft | 2 kts | 142° |
| 2026-04-10 23:37 | 32.45159 | -93.83285 | 258 ft | 85 kts | 144° |
| 2026-04-10 23:37 | 32.44402 | -93.82607 | 261 ft | 185 kts | 143° |
| 2026-04-10 23:37 | 32.43200 | -93.81546 | 903 ft | 245 kts | 144° |
| 2026-04-10 23:38 | 32.41766 | -93.80128 | 1876 ft | 278 kts | 127° |
| 2026-04-10 23:38 | 32.41051 | -93.78066 | 3855 ft | 278 kts | 99° |
| 2026-04-10 23:38 | 32.41270 | -93.75791 | 5349 ft | 287 kts | 71° |
| 2026-04-10 23:38 | 32.42390 | -93.73808 | 6843 ft | 296 kts | 44° |
| 2026-04-10 23:39 | 32.44177 | -93.72583 | 8309 ft | 300 kts | 18° |
| 2026-04-10 23:39 | 32.46234 | -93.72381 | 9858 ft | 297 kts | 351° |
| 2026-04-10 23:39 | 32.48110 | -93.73213 | 11300 ft | 288 kts | 324° |
| 2026-04-10 23:39 | 32.49647 | -93.74666 | 12795 ft | 278 kts | 319° |
| 2026-04-10 23:40 | 32.51118 | -93.76076 | 14283 ft | 265 kts | 319° |
| 2026-04-10 23:40 | 32.52520 | -93.77398 | 15665 ft | 248 kts | 320° |
| 2026-04-10 23:40 | 32.53832 | -93.78590 | 17090 ft | 228 kts | 322° |
| 2026-04-10 23:40 | 32.55165 | -93.79734 | 17564 ft | 254 kts | 324° |
| 2026-04-10 23:41 | 32.56815 | -93.80804 | 17768 ft | 286 kts | 343° |
| 2026-04-10 23:41 | 32.58828 | -93.81230 | 18354 ft | 304 kts | 351° |
| 2026-04-10 23:41 | 32.61005 | -93.81506 | 18920 ft | 321 kts | 353° |
| 2026-04-10 23:41 | 32.63254 | -93.81695 | 19467 ft | 336 kts | 356° |
| 2026-04-10 23:42 | 32.65646 | -93.81565 | 20056 ft | 351 kts | 2° |
| 2026-04-10 23:42 | 32.68122 | -93.81443 | 20747 ft | 360 kts | 359° |
| 2026-04-10 23:42 | 32.70673 | -93.81327 | 21314 ft | 375 kts | 1° |
| 2026-04-10 23:42 | 32.73329 | -93.81166 | 21852 ft | 389 kts | 1° |
| 2026-04-10 23:43 | 32.76009 | -93.80429 | 22535 ft | 403 kts | 21° |
| 2026-04-10 23:43 | 32.78548 | -93.78967 | 23348 ft | 409 kts | 24° |
| 2026-04-10 23:43 | 32.81101 | -93.77392 | 24091 ft | 415 kts | 25° |
| 2026-04-10 23:43 | 32.83630 | -93.75778 | 24757 ft | 419 kts | 26° |
| 2026-04-10 23:44 | 32.86121 | -93.73919 | 25433 ft | 426 kts | 33° |
| 2026-04-10 23:44 | 32.88582 | -93.71924 | 26089 ft | 429 kts | 30° |
| 2026-04-10 23:44 | 32.91092 | -93.69973 | 26750 ft | 434 kts | 31° |
| 2026-04-10 23:44 | 32.93593 | -93.67947 | 27413 ft | 438 kts | 31° |
| 2026-04-10 23:45 | 32.96163 | -93.65933 | 28041 ft | 442 kts | 31° |
| 2026-04-10 23:45 | 32.98721 | -93.63887 | 28671 ft | 446 kts | 31° |
| 2026-04-10 23:45 | 33.01323 | -93.61826 | 29282 ft | 450 kts | 30° |
| 2026-04-10 23:45 | 33.03947 | -93.59736 | 29889 ft | 454 kts | 30° |
| 2026-04-10 23:46 | 33.06589 | -93.57638 | 30454 ft | 458 kts | 31° |